Time;durP1;ratioP1;P1;durP2;ratioP2;P2;SDS_P1;SDS_P2;PMS_P1;PMS_P2;Temp;Humidity;BMP_temperature;BMP_pressure;BME280_temperature;BME280_humidity;BME280_pressure;Samples;Min_cycle;Max_cycle;Signal;HPM_P1;HPM_P2
2023/03/23 00:00:55;;;;;;;1.12;0.80;;;17.50;55.20;;;;;;905522;153;27469;-77
2023/03/23 00:03:21;;;;;;;1.15;0.80;;;17.50;55.20;;;;;;926212;151;27280;-77
2023/03/23 00:05:51;;;;;;;1.02;1.00;;;17.50;55.30;;;;;;925853;151;27304;-77
2023/03/23 00:08:15;;;;;;;0.68;0.65;;;17.50;55.30;;;;;;909099;153;27404;-77
2023/03/23 00:10:41;;;;;;;0.70;0.70;;;17.50;55.30;;;;;;925870;151;27415;-77
2023/03/23 00:13:08;;;;;;;0.95;0.90;;;17.50;55.40;;;;;;911284;153;27400;-77
2023/03/23 00:15:35;;;;;;;1.98;0.98;;;17.50;55.40;;;;;;927053;151;27291;-77
2023/03/23 00:18:04;;;;;;;1.02;0.88;;;17.50;55.50;;;;;;925163;151;27465;-77
2023/03/23 00:20:37;;;;;;;1.32;1.00;;;17.50;55.50;;;;;;909132;153;27423;-77
2023/03/23 00:22:59;;;;;;;1.10;1.00;;;17.40;55.50;;;;;;925566;151;27716;-77
2023/03/23 00:25:26;;;;;;;0.90;0.90;;;17.40;55.60;;;;;;918739;153;27386;-77
2023/03/23 00:27:52;;;;;;;0.90;0.90;;;17.40;55.60;;;;;;908346;153;27418;-77
2023/03/23 00:30:19;;;;;;;1.10;1.00;;;17.40;55.60;;;;;;926366;151;27396;-77
2023/03/23 00:32:45;;;;;;;0.78;0.78;;;17.40;55.70;;;;;;922961;151;27459;-77
2023/03/23 00:35:12;;;;;;;0.80;0.80;;;17.40;55.80;;;;;;925432;151;27363;-77
2023/03/23 00:37:39;;;;;;;0.80;0.80;;;17.30;55.80;;;;;;925319;150;27319;-77
2023/03/23 00:40:10;;;;;;;0.78;0.78;;;17.30;55.80;;;;;;929952;150;27378;-77
2023/03/23 00:42:36;;;;;;;1.60;1.00;;;17.30;55.90;;;;;;907966;153;27397;-77
2023/03/23 00:45:00;;;;;;;0.98;0.90;;;17.30;56.00;;;;;;926441;151;27390;-77
2023/03/23 00:47:25;;;;;;;1.20;1.12;;;17.30;56.00;;;;;;923193;151;27300;-77
2023/03/23 00:49:52;;;;;;;1.20;1.10;;;17.30;56.10;;;;;;926051;151;27395;-77
2023/03/23 00:52:18;;;;;;;0.90;0.90;;;17.30;56.10;;;;;;925073;151;27461;-77
2023/03/23 00:54:45;;;;;;;0.88;0.88;;;17.30;56.20;;;;;;923796;153;27317;-77
2023/03/23 00:57:11;;;;;;;0.70;0.70;;;17.20;56.20;;;;;;926559;151;27410;-77
2023/03/23 00:59:38;;;;;;;1.10;1.00;;;17.20;56.20;;;;;;925205;153;27481;-77
2023/03/23 01:02:05;;;;;;;1.15;0.90;;;17.20;56.20;;;;;;926057;150;27424;-77
2023/03/23 01:04:31;;;;;;;1.07;0.98;;;17.20;56.20;;;;;;930165;150;27464;-77
2023/03/23 01:07:00;;;;;;;0.80;0.80;;;17.20;56.20;;;;;;929400;150;27326;-77
2023/03/23 01:09:24;;;;;;;0.75;0.75;;;17.20;56.20;;;;;;927525;150;27428;-77
2023/03/23 01:11:51;;;;;;;0.90;0.90;;;17.20;56.20;;;;;;925287;150;27398;-77
2023/03/23 01:14:17;;;;;;;1.07;1.02;;;17.20;56.20;;;;;;928859;150;27496;-77
2023/03/23 01:16:44;;;;;;;0.72;0.70;;;17.20;56.20;;;;;;926359;150;27348;-77
2023/03/23 01:19:11;;;;;;;0.90;0.82;;;17.20;56.20;;;;;;927009;150;27355;-77
2023/03/23 01:21:37;;;;;;;1.75;0.88;;;17.20;56.30;;;;;;928360;150;27388;-77
2023/03/23 01:24:04;;;;;;;1.00;0.88;;;17.20;56.30;;;;;;926435;150;27469;-77
2023/03/23 01:26:31;;;;;;;1.25;0.70;;;17.20;56.30;;;;;;927202;150;27452;-77
2023/03/23 01:28:57;;;;;;;0.70;0.70;;;17.20;56.30;;;;;;926710;150;27435;-77
2023/03/23 01:31:24;;;;;;;1.05;0.80;;;17.20;56.20;;;;;;926947;150;27873;-77
2023/03/23 01:33:54;;;;;;;1.30;0.78;;;17.30;56.10;;;;;;924532;150;27394;-77
2023/03/23 01:36:17;;;;;;;0.70;0.70;;;17.30;56.10;;;;;;907899;154;27375;-78
2023/03/23 01:38:46;;;;;;;1.20;0.62;;;17.30;56.00;;;;;;924923;151;27295;-77
2023/03/23 01:41:13;;;;;;;0.62;0.60;;;17.30;55.70;;;;;;925325;151;27520;-77
2023/03/23 01:43:55;;;;;;;0.95;0.75;;;17.40;55.70;;;;;;928521;150;27398;-77
2023/03/23 01:46:22;;;;;;;0.80;0.80;;;17.40;55.60;;;;;;942066;148;27344;-77
2023/03/23 01:48:48;;;;;;;0.93;0.78;;;17.40;55.60;;;;;;943991;148;27383;-77
2023/03/23 01:51:15;;;;;;;0.70;0.70;;;17.50;55.50;;;;;;944956;148;27258;-77
2023/03/23 01:53:46;;;;;;;0.82;0.82;;;17.50;55.50;;;;;;943929;148;27386;-77
2023/03/23 01:56:13;;;;;;;0.80;0.80;;;17.60;55.50;;;;;;943908;148;27321;-77
2023/03/23 01:58:40;;;;;;;0.88;0.70;;;17.60;55.40;;;;;;946584;148;27369;-77
2023/03/23 02:01:07;;;;;;;0.70;0.70;;;17.60;55.30;;;;;;945472;148;27524;-77
2023/03/23 02:03:33;;;;;;;0.70;0.70;;;17.60;55.30;;;;;;940523;148;27582;-77
2023/03/23 02:05:59;;;;;;;0.85;0.85;;;17.70;55.30;;;;;;923319;151;27859;-77
2023/03/23 02:08:29;;;;;;;0.60;0.60;;;17.70;55.30;;;;;;927263;150;27414;-77
2023/03/23 02:10:55;;;;;;;1.72;0.93;;;17.70;55.20;;;;;;912171;153;27373;-77
2023/03/23 02:13:22;;;;;;;1.72;0.70;;;17.70;55.20;;;;;;909891;154;27515;-77
2023/03/23 02:15:54;;;;;;;1.07;0.80;;;17.80;55.20;;;;;;944872;148;27441;-77
2023/03/23 02:18:23;;;;;;;0.90;0.75;;;17.80;55.20;;;;;;943331;148;27419;-77
2023/03/23 02:21:01;;;;;;;1.00;0.90;;;17.80;55.10;;;;;;944925;148;27353;-77
2023/03/23 02:23:35;;;;;;;0.80;0.80;;;17.80;55.30;;;;;;943425;148;27348;-77
2023/03/23 02:26:09;;;;;;;0.70;0.68;;;17.80;55.40;;;;;;944964;148;27465;-77
2023/03/23 02:28:39;;;;;;;0.95;0.88;;;17.80;55.40;;;;;;936078;148;27413;-77
2023/03/23 02:31:28;;;;;;;2.05;0.60;;;17.90;55.50;;;;;;944123;148;27498;-77
2023/03/23 02:33:59;;;;;;;0.90;0.90;;;17.80;55.30;;;;;;943982;148;27503;-77
2023/03/23 02:36:35;;;;;;;1.07;1.07;;;17.80;55.30;;;;;;943012;148;27453;-77
2023/03/23 02:39:05;;;;;;;0.62;0.62;;;17.80;55.30;;;;;;942425;148;27405;-77
2023/03/23 02:41:31;;;;;;;0.62;0.62;;;17.80;55.30;;;;;;943856;148;27365;-77
2023/03/23 02:43:57;;;;;;;0.68;0.68;;;17.80;55.40;;;;;;943671;148;27376;-77
2023/03/23 02:46:24;;;;;;;0.70;0.70;;;17.80;55.30;;;;;;910516;152;27334;-77
2023/03/23 02:48:51;;;;;;;0.80;0.80;;;17.70;55.40;;;;;;929918;150;27342;-77
2023/03/23 02:51:17;;;;;;;0.85;0.80;;;17.70;55.40;;;;;;908438;153;27401;-77
2023/03/23 02:53:44;;;;;;;0.53;0.53;;;17.70;55.40;;;;;;911849;153;27411;-77
2023/03/23 02:56:10;;;;;;;0.62;0.62;;;17.70;55.40;;;;;;907594;154;27317;-77
2023/03/23 02:58:37;;;;;;;1.05;0.75;;;17.70;55.40;;;;;;926313;151;27466;-77
2023/03/23 03:01:25;;;;;;;0.70;0.70;;;17.70;55.40;;;;;;925339;150;27358;-77
2023/03/23 03:03:52;;;;;;;1.62;0.75;;;17.70;55.40;;;;;;926015;151;27433;-77
2023/03/23 03:06:29;;;;;;;1.30;0.90;;;17.70;55.40;;;;;;928215;150;27437;-77
2023/03/23 03:09:00;;;;;;;0.72;0.72;;;17.70;55.60;;;;;;908711;154;27459;-77
2023/03/23 03:11:26;;;;;;;1.10;1.10;;;17.70;55.70;;;;;;908336;154;27393;-77
2023/03/23 03:14:08;;;;;;;2.12;0.90;;;17.70;56.30;;;;;;907892;153;27434;-77
2023/03/23 03:16:40;;;;;;;0.98;0.95;;;17.70;56.50;;;;;;909976;153;27452;-77
2023/03/23 03:19:16;;;;;;;1.00;0.93;;;17.70;56.70;;;;;;917078;153;27523;-77
2023/03/23 03:21:42;;;;;;;1.72;0.93;;;17.60;56.70;;;;;;908305;154;27382;-77
2023/03/23 03:24:10;;;;;;;0.85;0.80;;;17.60;56.80;;;;;;911696;153;27409;-77
2023/03/23 03:26:35;;;;;;;1.05;0.80;;;17.50;57.00;;;;;;907457;154;27455;-77
2023/03/23 03:29:02;;;;;;;0.80;0.80;;;17.50;57.40;;;;;;911446;153;27429;-77
2023/03/23 03:31:29;;;;;;;2.30;0.98;;;17.50;57.60;;;;;;923204;151;27388;-78
2023/03/23 03:33:56;;;;;;;0.70;0.70;;;17.40;57.60;;;;;;930009;150;27444;-80
2023/03/23 03:36:22;;;;;;;3.22;0.85;;;17.30;57.90;;;;;;908811;154;27381;-81
2023/03/23 03:38:48;;;;;;;0.93;0.93;;;17.20;57.90;;;;;;924598;151;27441;-80
2023/03/23 03:41:15;;;;;;;0.90;0.80;;;17.20;58.00;;;;;;907946;154;27404;-80
2023/03/23 03:43:42;;;;;;;1.02;1.00;;;17.10;58.00;;;;;;907721;153;27397;-77
2023/03/23 03:46:08;;;;;;;1.12;0.70;;;17.10;58.20;;;;;;924574;151;27380;-77
2023/03/23 03:48:35;;;;;;;1.20;0.75;;;17.00;58.30;;;;;;909563;154;27361;-77
2023/03/23 03:51:02;;;;;;;0.82;0.82;;;17.00;58.50;;;;;;923176;151;27391;-77
2023/03/23 03:53:28;;;;;;;0.93;0.93;;;16.90;58.70;;;;;;927547;150;27461;-77
2023/03/23 03:55:59;;;;;;;1.20;1.10;;;16.90;58.90;;;;;;930904;150;27272;-77
2023/03/23 03:58:24;;;;;;;0.93;0.85;;;16.90;59.10;;;;;;924076;151;27431;-77
2023/03/23 04:00:52;;;;;;;1.62;1.00;;;16.80;59.00;;;;;;909507;153;27912;-77
2023/03/23 04:03:17;;;;;;;2.70;1.17;;;16.80;59.20;;;;;;911049;153;27324;-77
2023/03/23 04:05:45;;;;;;;0.85;0.82;;;16.70;59.40;;;;;;908465;154;27373;-77
2023/03/23 04:08:10;;;;;;;0.85;0.85;;;16.70;59.60;;;;;;909255;153;27366;-77
2023/03/23 04:10:37;;;;;;;0.95;0.80;;;16.70;59.80;;;;;;915861;153;27505;-77
2023/03/23 04:13:04;;;;;;;1.02;0.98;;;16.60;60.00;;;;;;912131;153;27396;-77
2023/03/23 04:15:30;;;;;;;1.77;1.17;;;16.60;60.00;;;;;;910844;153;27414;-77
2023/03/23 04:17:57;;;;;;;1.05;1.00;;;16.60;60.40;;;;;;908450;153;27446;-78
2023/03/23 04:20:23;;;;;;;1.10;1.00;;;16.60;60.70;;;;;;910316;153;27363;-77
2023/03/23 04:22:50;;;;;;;0.88;0.80;;;16.50;61.00;;;;;;909301;153;27474;-77
2023/03/23 04:25:17;;;;;;;1.30;1.20;;;16.50;61.10;;;;;;910765;153;27513;-77
2023/03/23 04:27:43;;;;;;;2.08;0.98;;;16.40;61.40;;;;;;910973;153;27397;-77
2023/03/23 04:30:09;;;;;;;1.22;1.02;;;16.40;61.60;;;;;;909702;153;27354;-77
2023/03/23 04:32:40;;;;;;;0.95;0.93;;;16.40;61.90;;;;;;926239;150;27402;-77
2023/03/23 04:35:03;;;;;;;1.17;1.07;;;16.30;62.00;;;;;;925032;151;27390;-77
2023/03/23 04:37:29;;;;;;;1.77;0.93;;;16.30;62.00;;;;;;928995;150;27440;-77
2023/03/23 04:40:01;;;;;;;1.02;0.93;;;16.30;62.40;;;;;;918303;153;27321;-78
2023/03/23 04:42:25;;;;;;;1.32;1.22;;;16.20;62.60;;;;;;917023;151;27887;-77
2023/03/23 04:44:55;;;;;;;2.58;1.02;;;16.20;62.80;;;;;;907846;154;27486;-77
2023/03/23 04:47:19;;;;;;;1.27;1.00;;;16.20;63.20;;;;;;910496;153;27395;-77
2023/03/23 04:49:45;;;;;;;0.90;0.90;;;16.20;63.40;;;;;;927008;151;27363;-77
2023/03/23 04:52:11;;;;;;;1.52;0.93;;;16.10;63.30;;;;;;909173;153;27383;-77
2023/03/23 04:54:39;;;;;;;1.10;1.00;;;16.10;63.30;;;;;;927809;151;27372;-77
2023/03/23 04:57:05;;;;;;;1.32;1.15;;;16.00;63.50;;;;;;918194;153;27441;-77
2023/03/23 04:59:31;;;;;;;1.25;1.15;;;16.00;63.90;;;;;;909820;153;27539;-77
2023/03/23 05:01:58;;;;;;;0.90;0.90;;;16.00;64.00;;;;;;912293;153;27406;-77
2023/03/23 05:04:25;;;;;;;2.08;1.17;;;15.90;64.00;;;;;;912583;153;27526;-77
2023/03/23 05:06:51;;;;;;;2.15;0.80;;;16.00;64.00;;;;;;909207;153;27452;-77
2023/03/23 05:09:18;;;;;;;1.20;1.10;;;15.90;63.90;;;;;;912149;154;27383;-77
2023/03/23 05:11:44;;;;;;;0.90;0.90;;;15.90;64.20;;;;;;902568;155;27457;-77
2023/03/23 05:14:11;;;;;;;1.30;1.10;;;15.90;64.00;;;;;;903080;155;27395;-77
2023/03/23 05:16:37;;;;;;;0.90;0.90;;;15.90;64.10;;;;;;904288;155;27499;-77
2023/03/23 05:19:04;;;;;;;1.05;0.95;;;15.90;64.20;;;;;;920357;152;27357;-77
2023/03/23 05:21:31;;;;;;;1.82;1.30;;;15.90;64.00;;;;;;901810;155;27409;-77
2023/03/23 05:24:00;;;;;;;1.40;1.30;;;15.90;64.00;;;;;;904170;155;27452;-78
2023/03/23 05:26:24;;;;;;;1.17;1.07;;;15.90;64.10;;;;;;920035;152;27426;-77
2023/03/23 05:28:52;;;;;;;1.40;1.30;;;15.90;64.10;;;;;;904378;154;27448;-78
2023/03/23 05:31:18;;;;;;;1.10;1.00;;;15.90;64.20;;;;;;918098;152;27295;-77
2023/03/23 05:33:44;;;;;;;1.00;0.80;;;15.90;64.20;;;;;;922514;151;27372;-77
2023/03/23 05:36:10;;;;;;;1.02;0.98;;;16.00;64.20;;;;;;924337;151;27877;-77
2023/03/23 05:38:38;;;;;;;1.12;1.02;;;16.00;64.30;;;;;;922616;151;27370;-77
2023/03/23 05:41:03;;;;;;;1.12;1.07;;;16.00;64.30;;;;;;924101;151;27331;-77
2023/03/23 05:43:30;;;;;;;1.07;1.00;;;16.00;64.50;;;;;;922692;151;27839;-77
2023/03/23 05:45:56;;;;;;;1.32;1.20;;;16.00;64.30;;;;;;923194;151;27516;-77
2023/03/23 05:48:23;;;;;;;0.90;0.90;;;16.10;64.40;;;;;;924402;151;27523;-77
2023/03/23 05:50:50;;;;;;;1.00;1.00;;;16.10;64.20;;;;;;922893;151;27331;-77
2023/03/23 05:53:16;;;;;;;2.22;1.22;;;16.10;64.30;;;;;;922770;151;27394;-77
2023/03/23 05:55:43;;;;;;;1.40;1.20;;;16.10;64.50;;;;;;923243;151;27339;-77
2023/03/23 05:58:09;;;;;;;1.30;1.20;;;16.10;64.60;;;;;;922322;151;27399;-77
2023/03/23 06:00:36;;;;;;;1.25;1.22;;;16.10;64.80;;;;;;924048;151;28059;-77
2023/03/23 06:03:03;;;;;;;1.30;1.00;;;16.10;64.80;;;;;;924638;151;27364;-77
2023/03/23 06:05:29;;;;;;;1.10;1.00;;;16.10;64.80;;;;;;924933;151;27405;-78
2023/03/23 06:07:56;;;;;;;2.15;1.20;;;16.10;65.00;;;;;;923496;151;27575;-77
2023/03/23 06:10:23;;;;;;;1.55;1.20;;;16.10;65.00;;;;;;922833;151;27809;-77
2023/03/23 06:12:50;;;;;;;1.67;1.35;;;16.10;65.00;;;;;;921380;151;27312;-78
2023/03/23 06:15:15;;;;;;;1.55;1.37;;;16.10;65.30;;;;;;923977;151;27368;-78
2023/03/23 06:17:42;;;;;;;1.37;1.27;;;16.20;65.60;;;;;;922607;151;27376;-77
2023/03/23 06:20:09;;;;;;;3.10;1.50;;;16.20;65.70;;;;;;924636;151;27396;-77
2023/03/23 06:22:39;;;;;;;2.20;1.90;;;16.20;65.60;;;;;;937844;148;27392;-77
2023/03/23 06:25:05;;;;;;;1.85;1.40;;;16.20;65.70;;;;;;925542;151;27494;-78
2023/03/23 06:27:31;;;;;;;2.02;1.40;;;16.20;66.00;;;;;;919634;151;27320;-78
2023/03/23 06:29:58;;;;;;;1.65;1.55;;;16.20;66.30;;;;;;901329;154;27391;-78
2023/03/23 06:32:25;;;;;;;1.30;1.20;;;16.20;66.70;;;;;;918137;152;27409;-77
2023/03/23 06:34:51;;;;;;;1.80;1.60;;;16.10;66.50;;;;;;903917;155;27454;-78
2023/03/23 06:37:18;;;;;;;1.32;1.22;;;16.10;66.80;;;;;;910648;154;27489;-77
2023/03/23 06:39:44;;;;;;;1.35;1.25;;;16.10;66.90;;;;;;904678;154;27366;-78
2023/03/23 06:42:13;;;;;;;1.52;1.20;;;16.10;67.20;;;;;;901923;153;27450;-77
2023/03/23 06:44:40;;;;;;;1.20;1.10;;;16.00;67.60;;;;;;904142;154;27522;-77
2023/03/23 06:47:07;;;;;;;1.95;1.10;;;16.00;67.90;;;;;;919356;152;27281;-77
2023/03/23 06:49:33;;;;;;;1.72;1.00;;;15.90;68.00;;;;;;917984;152;27467;-77
2023/03/23 06:52:01;;;;;;;1.20;1.00;;;15.90;68.30;;;;;;901997;155;27522;-77
2023/03/23 06:54:27;;;;;;;1.45;1.20;;;15.90;68.90;;;;;;902725;154;27431;-77
2023/03/23 06:56:53;;;;;;;1.25;1.10;;;15.80;69.00;;;;;;917305;151;27746;-77
2023/03/23 06:59:20;;;;;;;1.10;1.05;;;15.80;69.20;;;;;;904198;154;27491;-77
2023/03/23 07:01:48;;;;;;;1.70;1.07;;;15.80;69.30;;;;;;906614;154;27458;-77
2023/03/23 07:04:13;;;;;;;0.90;0.90;;;15.80;69.90;;;;;;923135;151;27493;-77
2023/03/23 07:06:40;;;;;;;1.98;1.40;;;15.80;69.60;;;;;;939687;148;27354;-78
2023/03/23 07:09:06;;;;;;;1.22;1.07;;;15.80;69.90;;;;;;947557;147;27482;-77
2023/03/23 07:11:33;;;;;;;1.00;1.00;;;15.80;70.30;;;;;;945254;147;27340;-77
2023/03/23 07:13:59;;;;;;;1.00;1.00;;;15.80;70.20;;;;;;944968;147;27477;-78
2023/03/23 07:16:26;;;;;;;1.32;1.22;;;15.80;70.50;;;;;;945609;147;27886;-78
2023/03/23 07:18:52;;;;;;;0.90;0.90;;;15.80;70.60;;;;;;942751;147;27356;-77
2023/03/23 07:21:19;;;;;;;1.32;1.05;;;15.80;70.70;;;;;;945441;147;27247;-78
2023/03/23 07:23:46;;;;;;;1.42;0.85;;;15.80;70.90;;;;;;944887;147;27428;-78
2023/03/23 07:26:13;;;;;;;1.05;0.98;;;15.80;71.00;;;;;;945977;147;27384;-78
2023/03/23 07:28:40;;;;;;;1.60;1.20;;;15.90;71.40;;;;;;910361;153;27413;-77
2023/03/23 07:31:07;;;;;;;0.90;0.80;;;15.90;71.40;;;;;;918853;153;27410;-78
2023/03/23 07:33:32;;;;;;;0.78;0.78;;;15.90;71.40;;;;;;926633;150;27343;-78
2023/03/23 07:36:01;;;;;;;0.90;0.80;;;16.00;71.40;;;;;;909605;154;27473;-78
2023/03/23 07:38:28;;;;;;;1.62;1.10;;;16.00;71.50;;;;;;925195;151;27373;-78
2023/03/23 07:40:54;;;;;;;1.12;1.02;;;16.10;71.70;;;;;;911045;153;27512;-78
2023/03/23 07:43:21;;;;;;;0.93;0.93;;;16.20;71.80;;;;;;909760;152;27425;-78
2023/03/23 07:45:47;;;;;;;1.17;1.07;;;16.20;71.80;;;;;;926812;150;27443;-78
2023/03/23 07:48:14;;;;;;;1.32;0.93;;;16.30;71.70;;;;;;928196;150;27383;-78
2023/03/23 07:50:41;;;;;;;0.80;0.80;;;16.30;71.70;;;;;;927646;150;27367;-78
2023/03/23 07:53:07;;;;;;;1.15;1.05;;;16.40;71.60;;;;;;926780;150;27295;-79
2023/03/23 07:55:34;;;;;;;0.93;0.90;;;16.40;71.60;;;;;;927506;150;27414;-78
2023/03/23 07:58:00;;;;;;;1.07;0.98;;;16.40;71.50;;;;;;928431;150;27389;-78
2023/03/23 08:00:28;;;;;;;1.05;1.00;;;16.40;71.20;;;;;;928047;150;27340;-78
2023/03/23 08:02:55;;;;;;;1.10;1.00;;;16.40;71.10;;;;;;929781;150;27307;-77
2023/03/23 08:05:20;;;;;;;1.95;1.60;;;16.40;71.20;;;;;;928962;150;27542;-77
2023/03/23 08:07:47;;;;;;;2.17;1.20;;;16.40;71.10;;;;;;928587;150;27492;-78
2023/03/23 08:10:14;;;;;;;1.90;1.32;;;16.40;71.30;;;;;;924372;150;27498;-77
2023/03/23 08:12:41;;;;;;;1.02;1.02;;;16.40;72.00;;;;;;938398;148;27333;-78
2023/03/23 08:15:07;;;;;;;1.20;1.07;;;16.30;72.10;;;;;;926657;151;27343;-77
2023/03/23 08:17:34;;;;;;;1.00;1.00;;;16.30;71.90;;;;;;923442;151;27389;-77
2023/03/23 08:20:00;;;;;;;1.05;0.93;;;16.30;72.00;;;;;;939314;148;27513;-78
2023/03/23 08:22:28;;;;;;;1.00;1.00;;;16.20;72.10;;;;;;926586;151;27322;-77
2023/03/23 08:24:53;;;;;;;1.00;0.93;;;16.30;71.90;;;;;;924603;151;27476;-77
2023/03/23 08:27:19;;;;;;;1.17;1.17;;;16.30;72.10;;;;;;939494;148;27471;-77
2023/03/23 08:29:46;;;;;;;1.05;1.05;;;16.30;72.30;;;;;;940171;148;27448;-77
2023/03/23 08:32:13;;;;;;;1.67;1.25;;;16.30;72.00;;;;;;924656;151;27319;-78
2023/03/23 08:34:39;;;;;;;0.82;0.82;;;16.30;72.00;;;;;;905003;155;27361;-77
2023/03/23 08:37:06;;;;;;;1.10;1.00;;;16.30;71.70;;;;;;903625;155;27421;-78
2023/03/23 08:39:33;;;;;;;1.15;1.10;;;16.30;71.70;;;;;;917316;152;27419;-77
2023/03/23 08:41:59;;;;;;;1.02;1.00;;;16.30;71.50;;;;;;905459;154;27394;-77
2023/03/23 08:44:26;;;;;;;0.72;0.72;;;16.30;71.40;;;;;;904165;155;27373;-77
2023/03/23 08:46:56;;;;;;;1.20;1.10;;;16.30;71.20;;;;;;903761;155;27444;-77
2023/03/23 08:49:20;;;;;;;1.57;0.93;;;16.30;71.00;;;;;;918786;152;28057;-77
2023/03/23 08:51:46;;;;;;;2.08;1.20;;;16.30;71.20;;;;;;924738;151;27398;-77
2023/03/23 08:54:12;;;;;;;1.37;1.20;;;16.30;71.30;;;;;;925150;151;27347;-77
2023/03/23 08:56:39;;;;;;;1.10;1.10;;;16.30;71.40;;;;;;924492;151;27315;-77
2023/03/23 08:59:06;;;;;;;1.22;1.12;;;16.30;71.40;;;;;;923656;151;27320;-77
2023/03/23 09:01:32;;;;;;;1.20;1.10;;;16.30;71.40;;;;;;922551;151;27389;-76
2023/03/23 09:03:59;;;;;;;1.05;0.90;;;16.30;71.50;;;;;;924916;151;27467;-77
2023/03/23 09:06:25;;;;;;;1.17;1.07;;;16.30;71.50;;;;;;924043;151;27375;-76
2023/03/23 09:08:51;;;;;;;0.80;0.80;;;16.30;71.70;;;;;;923707;151;27334;-77
2023/03/23 09:11:18;;;;;;;0.90;0.90;;;16.30;71.50;;;;;;926812;151;27488;-76
2023/03/23 09:13:45;;;;;;;1.17;1.00;;;16.30;71.40;;;;;;925462;151;27389;-77
2023/03/23 09:16:11;;;;;;;1.15;1.07;;;16.40;71.60;;;;;;927957;151;27336;-76
2023/03/23 09:18:38;;;;;;;0.93;0.85;;;16.40;71.70;;;;;;925496;151;27921;-76
2023/03/23 09:21:04;;;;;;;1.02;0.93;;;16.40;71.90;;;;;;925704;151;27387;-76
2023/03/23 09:23:31;;;;;;;1.17;1.10;;;16.50;71.70;;;;;;930322;153;27400;-77
2023/03/23 09:25:58;;;;;;;1.07;1.07;;;16.50;71.90;;;;;;936137;153;27295;-77
2023/03/23 09:28:24;;;;;;;1.00;0.90;;;16.50;71.70;;;;;;931369;151;27365;-77
2023/03/23 09:30:52;;;;;;;1.30;1.20;;;16.60;71.90;;;;;;924894;151;27943;-77
2023/03/23 09:33:17;;;;;;;1.70;0.95;;;16.60;71.70;;;;;;924978;151;27390;-77
2023/03/23 09:35:44;;;;;;;1.17;1.12;;;16.60;71.70;;;;;;924759;151;27463;-77
2023/03/23 09:38:13;;;;;;;1.35;1.02;;;16.70;72.00;;;;;;925059;151;27351;-77
2023/03/23 09:40:49;;;;;;;0.80;0.80;;;16.70;71.90;;;;;;924191;151;27416;-77
2023/03/23 09:43:44;;;;;;;0.95;0.95;;;16.80;71.70;;;;;;924511;151;27557;-77
2023/03/23 09:46:24;;;;;;;1.20;0.90;;;16.80;71.70;;;;;;916255;153;27486;-77
2023/03/23 09:48:54;;;;;;;1.00;1.00;;;16.90;71.40;;;;;;907203;153;27506;-76
2023/03/23 09:51:42;;;;;;;1.10;1.00;;;17.00;71.30;;;;;;924178;151;27408;-77
2023/03/23 09:54:11;;;;;;;0.95;0.95;;;17.00;71.10;;;;;;925251;151;27370;-77
2023/03/23 09:56:38;;;;;;;1.12;1.02;;;17.10;71.00;;;;;;924762;151;27408;-77
2023/03/23 09:59:20;;;;;;;0.70;0.68;;;17.20;70.70;;;;;;924850;151;27431;-77
2023/03/23 10:01:49;;;;;;;1.20;1.05;;;17.30;70.60;;;;;;925926;151;27451;-76
2023/03/23 10:04:27;;;;;;;1.00;0.85;;;17.40;70.80;;;;;;928379;151;27483;-77
2023/03/23 10:06:54;;;;;;;1.25;1.07;;;17.50;70.70;;;;;;926546;151;27372;-77
2023/03/23 10:09:21;;;;;;;1.10;1.05;;;17.70;70.80;;;;;;924268;151;27371;-77
2023/03/23 10:11:50;;;;;;;0.90;0.85;;;17.90;70.70;;;;;;926837;151;27350;-77
2023/03/23 10:14:34;;;;;;;1.00;1.00;;;18.00;70.70;;;;;;925066;151;27872;-77
2023/03/23 10:17:01;;;;;;;1.50;0.88;;;18.20;70.40;;;;;;926900;151;27304;-77
2023/03/23 10:19:27;;;;;;;0.82;0.82;;;18.50;70.20;;;;;;926823;151;27351;-78
2023/03/23 10:21:54;;;;;;;1.02;0.75;;;18.70;69.20;;;;;;925553;151;27366;-77
2023/03/23 10:24:20;;;;;;;1.30;1.20;;;18.80;67.90;;;;;;924751;151;27522;-77
2023/03/23 10:27:06;;;;;;;0.80;0.80;;;18.90;67.90;;;;;;925507;151;27397;-77
2023/03/23 10:29:43;;;;;;;0.85;0.85;;;19.10;67.10;;;;;;924017;153;27401;-77
2023/03/23 10:32:16;;;;;;;0.60;0.60;;;19.10;66.80;;;;;;924438;153;27300;-77
2023/03/23 10:34:58;;;;;;;0.60;0.60;;;19.20;66.20;;;;;;924289;151;27386;-77
2023/03/23 10:37:31;;;;;;;1.00;1.00;;;19.20;66.10;;;;;;922414;153;27417;-77
2023/03/23 10:39:58;;;;;;;0.82;0.82;;;19.20;66.10;;;;;;922202;151;27456;-77
2023/03/23 10:42:33;;;;;;;1.25;1.15;;;19.20;66.30;;;;;;923934;151;27483;-77
2023/03/23 10:45:21;;;;;;;1.25;1.15;;;19.10;66.40;;;;;;925911;151;27391;-77
2023/03/23 10:47:47;;;;;;;0.85;0.78;;;19.10;66.40;;;;;;924392;151;27466;-77
2023/03/23 10:50:13;;;;;;;1.30;1.17;;;19.10;66.30;;;;;;926516;153;27335;-76
2023/03/23 10:52:40;;;;;;;0.70;0.70;;;19.10;66.60;;;;;;925786;151;27312;-77
2023/03/23 10:55:13;;;;;;;1.02;0.90;;;19.10;66.70;;;;;;909473;153;27346;-77
2023/03/23 10:57:39;;;;;;;0.80;0.80;;;19.00;66.40;;;;;;911465;153;27562;-77
2023/03/23 11:00:15;;;;;;;0.80;0.80;;;19.00;66.50;;;;;;910321;153;27403;-77
2023/03/23 11:02:42;;;;;;;1.05;0.95;;;18.90;66.50;;;;;;909195;153;27525;-77
2023/03/23 11:05:08;;;;;;;0.90;0.90;;;18.80;66.20;;;;;;925821;151;27334;-76
2023/03/23 11:07:34;;;;;;;0.72;0.72;;;18.70;66.10;;;;;;900943;153;27798;-77
2023/03/23 11:10:17;;;;;;;0.70;0.70;;;18.70;66.60;;;;;;926774;151;27509;-77
2023/03/23 11:12:43;;;;;;;0.85;0.78;;;18.60;66.80;;;;;;925074;151;27317;-77
2023/03/23 11:15:30;;;;;;;0.90;0.90;;;18.60;67.10;;;;;;926888;151;27339;-78
2023/03/23 11:17:58;;;;;;;0.80;0.53;;;18.60;67.30;;;;;;909440;153;27421;-77
2023/03/23 11:20:23;;;;;;;0.75;0.75;;;18.60;67.00;;;;;;926255;151;27482;-76
2023/03/23 11:22:50;;;;;;;0.82;0.60;;;18.70;67.10;;;;;;910907;153;27391;-76
2023/03/23 11:25:17;;;;;;;0.90;0.90;;;18.70;66.90;;;;;;913629;153;27380;-76
2023/03/23 11:27:43;;;;;;;0.78;0.78;;;18.80;66.70;;;;;;924510;151;27303;-76
2023/03/23 11:30:10;;;;;;;0.60;0.60;;;18.80;66.60;;;;;;924596;151;27382;-76
2023/03/23 11:32:36;;;;;;;0.50;0.50;;;18.90;66.50;;;;;;924574;151;27508;-77
2023/03/23 11:35:04;;;;;;;0.70;0.70;;;19.00;66.40;;;;;;924788;153;27331;-77
2023/03/23 11:37:36;;;;;;;1.07;0.72;;;19.00;66.20;;;;;;918032;153;27325;-76
2023/03/23 11:40:12;;;;;;;0.57;0.57;;;19.10;66.40;;;;;;910623;153;27306;-77
2023/03/23 11:42:42;;;;;;;0.70;0.70;;;19.20;66.10;;;;;;925987;151;27386;-77
2023/03/23 11:45:18;;;;;;;0.40;0.40;;;19.30;65.90;;;;;;909017;153;27363;-77
2023/03/23 11:48:03;;;;;;;1.87;0.65;;;19.30;65.40;;;;;;912112;153;27406;-77
2023/03/23 11:50:45;;;;;;;0.70;0.70;;;19.40;65.20;;;;;;902448;153;27378;-76
2023/03/23 11:53:48;;;;;;;0.50;0.50;;;19.40;65.50;;;;;;905399;153;27944;-76
2023/03/23 11:56:36;;;;;;;0.90;0.90;;;19.50;66.00;;;;;;909492;153;27440;-77
2023/03/23 11:59:04;;;;;;;0.57;0.57;;;19.70;65.70;;;;;;914109;153;27403;-76
2023/03/23 12:01:35;;;;;;;0.60;0.60;;;19.80;65.40;;;;;;917924;153;27376;-77
2023/03/23 12:04:20;;;;;;;2.92;0.85;;;20.00;65.20;;;;;;911393;153;27373;-77
2023/03/23 12:06:55;;;;;;;0.45;0.45;;;20.10;64.90;;;;;;927018;151;27455;-76
2023/03/23 12:09:21;;;;;;;0.70;0.70;;;20.20;63.80;;;;;;926015;151;27398;-77
2023/03/23 12:12:03;;;;;;;0.40;0.40;;;20.30;63.00;;;;;;908279;153;27377;-76
2023/03/23 12:14:32;;;;;;;0.70;0.70;;;20.30;63.40;;;;;;902437;155;27456;-76
2023/03/23 12:17:17;;;;;;;0.53;0.50;;;20.30;63.00;;;;;;900235;155;27419;-77
2023/03/23 12:19:58;;;;;;;0.68;0.68;;;20.30;62.90;;;;;;917601;152;27489;-76
2023/03/23 12:22:34;;;;;;;0.55;0.55;;;20.20;62.70;;;;;;903209;154;27367;-76
2023/03/23 12:25:17;;;;;;;0.72;0.72;;;20.20;62.70;;;;;;902533;154;27435;-76
2023/03/23 12:27:48;;;;;;;0.50;0.50;;;20.10;62.70;;;;;;901717;153;27378;-76
2023/03/23 12:30:36;;;;;;;0.55;0.55;;;20.00;62.30;;;;;;917868;152;27395;-77
2023/03/23 12:33:17;;;;;;;1.00;0.47;;;19.90;62.20;;;;;;911374;154;27377;-76
2023/03/23 12:35:54;;;;;;;0.93;0.60;;;19.80;62.10;;;;;;903937;154;27484;-78
2023/03/23 12:38:37;;;;;;;1.20;0.70;;;19.60;62.10;;;;;;854289;164;27441;-77
2023/03/23 12:41:16;;;;;;;0.53;0.53;;;19.50;62.30;;;;;;941251;148;27375;-77
2023/03/23 12:43:52;;;;;;;1.15;1.05;;;19.30;62.70;;;;;;940231;148;27393;-77
2023/03/23 12:46:27;;;;;;;1.07;0.57;;;19.20;62.90;;;;;;930352;148;27869;-77
2023/03/23 12:49:15;;;;;;;0.68;0.68;;;19.10;63.10;;;;;;924797;151;27319;-77
2023/03/23 12:51:42;;;;;;;0.60;0.60;;;19.00;63.40;;;;;;917910;152;27367;-77
2023/03/23 12:54:33;;;;;;;0.95;0.70;;;19.00;63.80;;;;;;902436;154;27431;-73
2023/03/23 12:57:00;;;;;;;0.50;0.50;;;19.00;64.40;;;;;;905329;154;27475;-73